Bolton, Connecticut
Current Conditions -  °F | °C
As of 3:53 PM on Wednesday 17 Dec 2014 (Local Time) from KHFD Reporting Station
Overcast Overcast  
Wind Chill: 45°   Ceiling: 2700
Heat Index: 48°   Visibility: 10mi
Dew Point: 39°   Wind: 7mph
Humidity: 71%   Direction: NA
Pressure: 29.78"   Gusts: NA
Location:  41.77°N, 72.43°W
Report Text: KHFD 172053Z VRB06KT 10SM OVC027 09/04 A2978 RMK AO2 SLP084 T00890039 53009
Loading
Personal Weather Stations






























Interactive Weather Map New forecast layout! Learn more

10-Day Weather Forecast

Advertisements
Track Severe Weather on mobile